Gaylord, MI (49735)

12:30 AM EDT on October 26, 2014 (GMT -0400)
Castlewood Drive | Change Station
CLOSE
Current Station
Personal Weather Station
Location: Gaylord, MI
Elevation: 1315 ft
Nearby Weather Stations

Elev 1315 ft 44.99 °N, 84.66 °W | Updated 2 minutes ago

Clear
Clear
46.5 °F
Feels Like 46 °F
N
1.0
Wind Variable Wind from NNW
Gusts 4.0 mph

Today
High -- | Low -- °F
--% Chance of Precip.
Yesterday
High -- | Low -- °F
Precip. -- in
8:08 AM 6:35 PM
Waxing Crescent, 6% visible
Pressure 29.77 in
Visibility 10.0 miles
Clouds Clear
Windchill 46 °F
Dew Point 34 °F
Humidity 62%
Rainfall 0.00 in
Snow Depth Not available.
UV 0.0 out of 12
Pollen 1.80 out of 12
Ozone Good
PM2.5 Good
Flu Activity Sporadic
METAR KGLR 260353Z AUTO 29011G20KT 10SM CLR 09/M01 A2976 RMK AO2 SLP080 T00941011

More Conditions Fewer Conditions

Pressure 29.77 in
Visibility 10.0 miles
Clouds Clear
Windchill 46 °F
Dew Point 34 °F
Humidity 62%
Rainfall 0.00 in
Snow Depth Not available.
UV 0.0 out of 12
Pollen 1.80 out of 12
Ozone Good
PM2.5 Good
Flu Activity Sporadic
METAR KGLR 260353Z AUTO 29011G20KT 10SM CLR 09/M01 A2976 RMK AO2 SLP080 T00941011

More Conditions Fewer Conditions

Nowcast | as of 12:00 am EDT on October 26, 2014

At 1 am...clear. Temperature 44. Northwest winds 13 mph. At 3 am...clear. Temperature 41. Northwest winds 14 mph. At 5 am...clear. Temperature 40. Northwest winds 13 mph.

×

10-Day Weather Forecast

Almanac

Astronomy

Oct. 26, 2014 Rise Set
Actual Time 8:08 AM EDT 6:35 PM EDT
Civil Twilight 7:38 AM EDT 7:05 PM EDT
Nautical Twilight 7:04 AM EDT 7:39 PM EDT
Astronomical Twilight 6:30 AM EDT 8:13 PM EDT
Moon 10:50 AM EDT 8:41 PM EDT
Length of Visible Light 11h 27m
Length of Day
10h 26m
Tomorrow will be 2m 53s shorter.
Waxing Crescent, 6% of the Moon is Illuminated
Today
Waxing Crescent
Oct 30
First Quarter
Nov 6
Full
Nov 14
Last Quarter
Nov 22
New

Today's Extremes

State Highs State Lows

Community

WunderPhotos

Upload Photos

1,765,110 photos uploaded!

Nearby

Air Quality

  Air Quality AQ Index Pollutant
Yesterday Good
PM2.5
Yesterday Good
OZONE
Current Good
OZONE
Current Good
PM2.5
Saturday Good
PM2.5
Sunday Good
PM2.5
Monday Good
PM2.5

Snow Depth

Station Depth Elevation
No new snow has been reported.

Earthquake Activity

City Distance Mag. Time & Date
No recent earthquake activity has been reported nearby.
Minimum magnitude displayed is 2.5.

Coastal Water Temperatures

Place Temperature
No Stations Reporting

Nearby Weather Stations